Time;durP1;ratioP1;P1;durP2;ratioP2;P2;SDS_P1;SDS_P2;PMS_P1;PMS_P2;Temp;Humidity;BMP_temperature;BMP_pressure;BME280_temperature;BME280_humidity;BME280_pressure;Samples;Min_cycle;Max_cycle;Signal;HPM_P1;HPM_P2
2023/07/13 00:02:23;;;;;;;15.32;2.65;;;;;;;;;;6211708;23;20016;-63
2023/07/13 00:04:50;;;;;;;10.23;2.22;;;;;;;;;;6212564;23;20016;-63
2023/07/13 00:07:19;;;;;;;12.88;2.22;;;;;;;;;;6212470;23;20312;-63
2023/07/13 00:09:46;;;;;;;9.25;2.17;;;;;;;;;;6211936;23;20020;-63
2023/07/13 00:12:32;;;;;;;12.05;2.30;;;;;;;;;;6212446;23;20017;-63
2023/07/13 00:14:59;;;;;;;10.20;2.35;;;;;;;;;;6212340;23;20348;-63
2023/07/13 00:17:26;;;;;;;10.80;2.25;;;;;;;;;;6212497;23;20099;-63
2023/07/13 00:19:52;;;;;;;9.15;2.45;;;;;;;;;;6212573;23;20027;-63
2023/07/13 00:22:19;;;;;;;11.70;2.65;;;;;;;;;;6212225;23;20030;-63
2023/07/13 00:24:46;;;;;;;11.30;2.75;;;;;;;;;;6211869;23;20447;-63
2023/07/13 00:27:12;;;;;;;11.18;2.70;;;;;;;;;;6212380;23;20019;-63
2023/07/13 00:29:39;;;;;;;10.00;2.85;;;;;;;;;;6212418;23;20019;-63
2023/07/13 00:32:05;;;;;;;10.15;2.70;;;;;;;;;;6211739;23;20009;-63
2023/07/13 00:34:31;;;;;;;11.65;2.40;;;;;;;;;;6212241;23;20013;-63
2023/07/13 00:36:57;;;;;;;8.80;2.47;;;;;;;;;;6212256;23;20096;-63
2023/07/13 00:39:24;;;;;;;8.50;2.10;;;;;;;;;;6211846;23;20025;-63
2023/07/13 00:41:50;;;;;;;11.00;2.30;;;;;;;;;;6211730;23;20056;-63
2023/07/13 00:44:17;;;;;;;11.18;2.55;;;;;;;;;;6212112;23;20020;-63
2023/07/13 00:46:43;;;;;;;11.25;2.13;;;;;;;;;;6211691;23;20020;-63
2023/07/13 00:49:11;;;;;;;11.45;2.28;;;;;;;;;;6211707;23;20086;-63
2023/07/13 00:51:41;;;;;;;10.20;2.50;;;;;;;;;;6212195;23;20043;-63
2023/07/13 00:54:15;;;;;;;9.10;2.22;;;;;;;;;;6211762;23;20107;-63
2023/07/13 00:56:44;;;;;;;6.95;2.38;;;;;;;;;;6212319;23;20016;-63
2023/07/13 00:59:11;;;;;;;10.07;2.20;;;;;;;;;;6212323;23;20016;-63
2023/07/13 01:01:37;;;;;;;6.72;2.05;;;;;;;;;;6211835;23;20017;-63
2023/07/13 01:04:07;;;;;;;10.70;2.67;;;;;;;;;;6211937;23;20039;-63
2023/07/13 01:06:34;;;;;;;11.52;2.13;;;;;;;;;;6211648;23;20235;-63
2023/07/13 01:09:00;;;;;;;12.95;2.55;;;;;;;;;;6211598;23;20016;-63
2023/07/13 01:11:27;;;;;;;9.25;2.47;;;;;;;;;;6211921;23;20013;-63
2023/07/13 01:13:54;;;;;;;9.57;2.70;;;;;;;;;;6212008;23;20015;-63
2023/07/13 01:16:25;;;;;;;9.27;2.47;;;;;;;;;;6211564;23;20017;-63
2023/07/13 01:18:51;;;;;;;7.78;2.42;;;;;;;;;;6211929;23;20019;-63
2023/07/13 01:21:18;;;;;;;9.75;2.20;;;;;;;;;;6211903;23;20016;-63
2023/07/13 01:23:45;;;;;;;8.52;2.20;;;;;;;;;;6211128;23;20059;-63
2023/07/13 01:26:11;;;;;;;8.00;2.47;;;;;;;;;;6211868;23;20016;-63
2023/07/13 01:28:38;;;;;;;9.32;2.15;;;;;;;;;;6211963;23;20035;-63
2023/07/13 01:31:04;;;;;;;11.77;3.03;;;;;;;;;;6211480;23;20017;-63
2023/07/13 01:33:31;;;;;;;9.45;2.78;;;;;;;;;;6211621;23;20070;-63
2023/07/13 01:35:57;;;;;;;10.48;2.33;;;;;;;;;;6211307;23;20490;-63
2023/07/13 01:38:24;;;;;;;10.40;2.75;;;;;;;;;;6211621;23;20453;-63
2023/07/13 01:40:51;;;;;;;11.80;2.40;;;;;;;;;;6211441;23;20325;-63
2023/07/13 01:43:17;;;;;;;9.55;2.40;;;;;;;;;;6211510;23;20009;-63
2023/07/13 01:45:43;;;;;;;10.10;2.60;;;;;;;;;;6211304;23;20012;-63
2023/07/13 01:48:10;;;;;;;14.45;3.47;;;;;;;;;;6211030;23;20020;-63
2023/07/13 01:50:36;;;;;;;14.55;3.38;;;;;;;;;;6211833;23;20017;-63
2023/07/13 01:53:03;;;;;;;7.80;2.20;;;;;;;;;;6211661;23;20012;-63
2023/07/13 01:55:29;;;;;;;11.18;2.47;;;;;;;;;;6211232;23;20454;-63
2023/07/13 01:57:56;;;;;;;9.82;2.28;;;;;;;;;;6211555;23;20019;-63
2023/07/13 02:00:22;;;;;;;9.20;2.50;;;;;;;;;;6211290;23;20016;-63
2023/07/13 02:02:48;;;;;;;11.32;2.60;;;;;;;;;;6211093;23;20012;-63
2023/07/13 02:05:14;;;;;;;8.23;2.40;;;;;;;;;;6211731;23;20052;-63
2023/07/13 02:07:41;;;;;;;9.02;2.38;;;;;;;;;;6211585;23;20021;-63
2023/07/13 02:10:08;;;;;;;9.23;2.55;;;;;;;;;;6210763;23;20016;-63
2023/07/13 02:12:34;;;;;;;8.82;2.47;;;;;;;;;;6211260;23;20024;-63
2023/07/13 02:15:00;;;;;;;12.95;2.65;;;;;;;;;;6211585;23;20016;-63
2023/07/13 02:17:26;;;;;;;9.82;2.70;;;;;;;;;;6210627;23;20019;-63
2023/07/13 02:19:53;;;;;;;15.80;3.03;;;;;;;;;;6211453;23;20091;-63
2023/07/13 02:22:19;;;;;;;13.75;3.15;;;;;;;;;;6211634;23;20017;-63
2023/07/13 02:24:45;;;;;;;15.00;3.00;;;;;;;;;;6210787;23;20443;-63
2023/07/13 02:27:11;;;;;;;13.68;2.58;;;;;;;;;;6211187;23;20070;-63
2023/07/13 02:29:37;;;;;;;9.10;2.83;;;;;;;;;;6211235;23;20087;-63
2023/07/13 02:32:03;;;;;;;11.68;2.88;;;;;;;;;;6210745;23;20040;-63
2023/07/13 02:34:29;;;;;;;16.80;3.15;;;;;;;;;;6210881;23;20436;-63
2023/07/13 02:36:55;;;;;;;14.45;2.35;;;;;;;;;;6184611;23;20052;-63
2023/07/13 02:39:21;;;;;;;15.98;3.42;;;;;;;;;;6210775;23;20024;-63
2023/07/13 02:41:47;;;;;;;11.38;2.72;;;;;;;;;;6211240;23;20013;-63
2023/07/13 02:44:13;;;;;;;10.95;2.78;;;;;;;;;;6210977;23;20514;-63
2023/07/13 02:46:39;;;;;;;10.48;2.67;;;;;;;;;;6210753;23;20039;-63
2023/07/13 02:49:06;;;;;;;15.98;3.15;;;;;;;;;;6211206;23;20087;-63
2023/07/13 02:51:33;;;;;;;8.93;2.63;;;;;;;;;;6210956;23;20507;-63
2023/07/13 02:54:00;;;;;;;9.20;2.60;;;;;;;;;;6183757;23;20083;-63
2023/07/13 02:56:27;;;;;;;11.32;2.50;;;;;;;;;;6211005;23;20013;-63
2023/07/13 02:58:54;;;;;;;9.73;2.65;;;;;;;;;;6210909;23;20016;-63
2023/07/13 03:01:20;;;;;;;8.77;2.90;;;;;;;;;;6210080;23;20028;-63
2023/07/13 03:03:46;;;;;;;13.05;2.67;;;;;;;;;;6210819;23;20027;-63
2023/07/13 03:06:13;;;;;;;9.52;2.80;;;;;;;;;;6210508;23;20046;-63
2023/07/13 03:08:40;;;;;;;13.57;3.30;;;;;;;;;;6210506;23;20020;-63
2023/07/13 03:11:10;;;;;;;11.32;2.42;;;;;;;;;;6210805;23;20044;-63
2023/07/13 03:13:37;;;;;;;13.27;3.03;;;;;;;;;;6184143;23;20016;-63
2023/07/13 03:16:03;;;;;;;8.35;2.40;;;;;;;;;;6210583;23;20340;-63
2023/07/13 03:18:30;;;;;;;11.00;2.65;;;;;;;;;;6210846;23;20019;-63
2023/07/13 03:20:56;;;;;;;8.15;2.70;;;;;;;;;;6210981;23;20013;-63
2023/07/13 03:23:22;;;;;;;13.70;2.72;;;;;;;;;;6210604;23;20135;-63
2023/07/13 03:25:49;;;;;;;11.38;2.78;;;;;;;;;;6211098;23;20013;-63
2023/07/13 03:28:15;;;;;;;9.50;2.60;;;;;;;;;;6211006;23;20063;-63
2023/07/13 03:30:41;;;;;;;12.15;2.72;;;;;;;;;;6210461;23;20390;-63
2023/07/13 03:33:08;;;;;;;11.73;2.95;;;;;;;;;;6210808;23;20044;-63
2023/07/13 03:35:34;;;;;;;10.38;2.50;;;;;;;;;;6210409;23;20028;-63
2023/07/13 03:38:00;;;;;;;10.68;2.70;;;;;;;;;;6210293;23;20452;-63
2023/07/13 03:40:27;;;;;;;12.07;3.10;;;;;;;;;;6210762;23;20017;-63
2023/07/13 03:42:53;;;;;;;13.70;3.05;;;;;;;;;;6210562;23;20024;-63
2023/07/13 03:45:20;;;;;;;12.77;2.88;;;;;;;;;;6210310;23;20017;-63
2023/07/13 03:47:46;;;;;;;12.82;3.20;;;;;;;;;;6210732;23;20056;-63
2023/07/13 03:50:12;;;;;;;12.10;3.10;;;;;;;;;;6210687;23;20013;-63
2023/07/13 03:52:38;;;;;;;14.00;3.05;;;;;;;;;;6210116;23;20015;-63
2023/07/13 03:55:05;;;;;;;11.75;2.97;;;;;;;;;;6210707;23;20087;-63
2023/07/13 03:57:31;;;;;;;14.13;3.20;;;;;;;;;;6210455;23;20440;-63
2023/07/13 03:59:57;;;;;;;9.85;2.70;;;;;;;;;;6210491;23;20249;-62
2023/07/13 04:02:23;;;;;;;11.02;3.50;;;;;;;;;;6210589;23;20062;-62
2023/07/13 04:04:49;;;;;;;18.80;3.40;;;;;;;;;;6210884;23;20012;-62
2023/07/13 04:07:15;;;;;;;9.43;2.78;;;;;;;;;;6210167;23;20027;-62
2023/07/13 04:09:41;;;;;;;10.15;2.90;;;;;;;;;;6210595;23;20017;-62
2023/07/13 04:12:08;;;;;;;12.38;2.88;;;;;;;;;;6211001;23;20013;-62
2023/07/13 04:14:34;;;;;;;12.00;3.10;;;;;;;;;;6210132;23;20214;-62
2023/07/13 04:17:00;;;;;;;14.85;3.58;;;;;;;;;;6210330;23;20027;-62
2023/07/13 04:19:26;;;;;;;12.68;2.80;;;;;;;;;;6210655;23;20320;-62
2023/07/13 04:21:52;;;;;;;14.88;3.00;;;;;;;;;;6210094;23;20048;-62
2023/07/13 04:24:18;;;;;;;14.52;2.72;;;;;;;;;;6212009;23;20067;-62
2023/07/13 04:26:45;;;;;;;13.00;3.28;;;;;;;;;;6212549;23;20020;-62
2023/07/13 04:29:11;;;;;;;9.07;3.20;;;;;;;;;;6211970;23;20026;-62
2023/07/13 04:31:37;;;;;;;14.30;3.90;;;;;;;;;;6212208;23;20017;-62
2023/07/13 04:34:03;;;;;;;13.60;3.63;;;;;;;;;;6214221;23;20336;-62
2023/07/13 04:36:29;;;;;;;12.27;3.00;;;;;;;;;;6213505;23;20386;-62
2023/07/13 04:38:55;;;;;;;10.55;3.25;;;;;;;;;;6214234;23;20305;-62
2023/07/13 04:41:21;;;;;;;12.93;2.97;;;;;;;;;;6214389;23;20024;-62
2023/07/13 04:43:48;;;;;;;14.93;3.83;;;;;;;;;;6213763;23;20069;-62
2023/07/13 04:46:17;;;;;;;12.10;3.00;;;;;;;;;;6214327;23;20016;-62
2023/07/13 04:48:44;;;;;;;12.73;3.42;;;;;;;;;;6214579;23;20008;-62
2023/07/13 04:51:10;;;;;;;10.77;3.40;;;;;;;;;;6213620;23;20012;-62
2023/07/13 04:53:36;;;;;;;10.77;3.10;;;;;;;;;;6187694;23;20035;-62
2023/07/13 04:56:03;;;;;;;12.68;3.38;;;;;;;;;;6214375;23;20087;-62
2023/07/13 04:58:29;;;;;;;10.77;3.13;;;;;;;;;;6213575;23;20051;-62
2023/07/13 05:01:05;;;;;;;11.20;3.35;;;;;;;;;;6213607;23;20016;-62
2023/07/13 05:03:32;;;;;;;13.68;3.25;;;;;;;;;;6209721;23;20012;-62
2023/07/13 05:05:59;;;;;;;10.95;3.10;;;;;;;;;;6212714;23;20044;-63
2023/07/13 05:08:25;;;;;;;10.82;3.70;;;;;;;;;;6214070;23;20086;-63
2023/07/13 05:10:52;;;;;;;15.35;3.30;;;;;;;;;;6214016;23;20013;-63
2023/07/13 05:13:18;;;;;;;11.00;3.30;;;;;;;;;;6213533;23;20012;-62
2023/07/13 05:15:44;;;;;;;12.93;3.60;;;;;;;;;;6214057;23;20634;-62
2023/07/13 05:18:10;;;;;;;13.20;3.60;;;;;;;;;;6213807;23;20447;-62
2023/07/13 05:20:36;;;;;;;11.05;3.17;;;;;;;;;;6213695;23;20320;-62
2023/07/13 05:23:03;;;;;;;12.20;3.75;;;;;;;;;;6213742;23;20383;-62
2023/07/13 05:25:29;;;;;;;10.80;3.50;;;;;;;;;;6214107;23;20013;-62
2023/07/13 05:27:55;;;;;;;11.50;3.20;;;;;;;;;;6213243;23;20575;-62
2023/07/13 05:30:21;;;;;;;12.00;3.33;;;;;;;;;;6213571;23;20032;-62
2023/07/13 05:32:47;;;;;;;14.70;3.50;;;;;;;;;;6213706;23;20012;-62
2023/07/13 05:35:13;;;;;;;17.00;3.70;;;;;;;;;;6212697;23;20442;-62
2023/07/13 05:37:39;;;;;;;14.88;3.90;;;;;;;;;;6213271;23;20027;-62
2023/07/13 05:40:05;;;;;;;17.15;3.35;;;;;;;;;;6213599;23;20379;-62
2023/07/13 05:42:32;;;;;;;12.02;3.22;;;;;;;;;;6213028;23;20024;-62
2023/07/13 05:44:58;;;;;;;17.65;3.50;;;;;;;;;;6213054;23;20076;-62
2023/07/13 05:47:24;;;;;;;14.10;3.65;;;;;;;;;;6213405;23;20056;-63
2023/07/13 05:49:50;;;;;;;15.60;3.47;;;;;;;;;;6213573;23;20021;-63
2023/07/13 05:52:16;;;;;;;17.70;3.70;;;;;;;;;;6213020;23;20020;-63
2023/07/13 05:54:42;;;;;;;12.52;3.83;;;;;;;;;;6213638;23;20044;-62
2023/07/13 05:57:08;;;;;;;15.57;3.67;;;;;;;;;;6213694;23;20356;-62
2023/07/13 05:59:34;;;;;;;12.10;3.70;;;;;;;;;;6212811;23;20030;-62
2023/07/13 06:02:00;;;;;;;13.00;3.47;;;;;;;;;;6213453;23;20024;-62
2023/07/13 06:04:26;;;;;;;15.82;4.13;;;;;;;;;;6186222;23;20431;-62
2023/07/13 06:06:53;;;;;;;11.32;3.60;;;;;;;;;;6212924;23;20413;-62
2023/07/13 06:09:19;;;;;;;12.93;3.53;;;;;;;;;;6213472;23;20011;-62
2023/07/13 06:11:45;;;;;;;14.13;3.50;;;;;;;;;;6212647;23;20067;-62
2023/07/13 06:14:11;;;;;;;14.10;3.20;;;;;;;;;;6212943;23;20368;-62
2023/07/13 06:16:37;;;;;;;12.32;3.35;;;;;;;;;;6213492;23;20016;-62
2023/07/13 06:19:03;;;;;;;12.60;3.50;;;;;;;;;;6213466;23;20533;-62
2023/07/13 06:21:29;;;;;;;14.18;4.00;;;;;;;;;;6212358;23;20020;-62
2023/07/13 06:23:55;;;;;;;7.13;3.00;;;;;;;;;;6213265;23;20470;-62
2023/07/13 06:26:22;;;;;;;12.20;3.65;;;;;;;;;;6212896;23;20115;-62
2023/07/13 06:28:48;;;;;;;11.98;3.55;;;;;;;;;;6213019;23;20008;-62
2023/07/13 06:31:14;;;;;;;11.00;3.20;;;;;;;;;;6212968;23;20071;-62
2023/07/13 06:33:41;;;;;;;12.27;3.72;;;;;;;;;;6198777;23;20055;-63
2023/07/13 06:36:08;;;;;;;12.07;4.20;;;;;;;;;;6208708;23;20017;-63
2023/07/13 06:38:34;;;;;;;14.57;4.13;;;;;;;;;;6208689;23;20017;-62
2023/07/13 06:41:00;;;;;;;10.45;3.28;;;;;;;;;;6211937;23;20017;-64
2023/07/13 06:43:27;;;;;;;12.77;3.90;;;;;;;;;;6208951;23;20329;-64
2023/07/13 06:45:55;;;;;;;15.15;3.65;;;;;;;;;;6211401;23;20477;-65
2023/07/13 06:48:21;;;;;;;16.15;3.63;;;;;;;;;;6212125;23;20020;-64
2023/07/13 06:50:49;;;;;;;13.73;4.22;;;;;;;;;;6211514;23;20584;-65
2023/07/13 06:53:15;;;;;;;13.82;3.33;;;;;;;;;;6211891;23;20012;-63
2023/07/13 06:55:44;;;;;;;9.68;3.13;;;;;;;;;;6206251;23;20048;-64
2023/07/13 06:58:10;;;;;;;13.18;3.60;;;;;;;;;;6211328;23;20096;-67
2023/07/13 07:00:36;;;;;;;10.00;3.20;;;;;;;;;;6209702;23;20357;-64
2023/07/13 07:03:03;;;;;;;14.52;3.72;;;;;;;;;;6211527;23;20070;-65
2023/07/13 07:05:29;;;;;;;7.65;3.00;;;;;;;;;;6210848;23;20025;-63
2023/07/13 07:07:56;;;;;;;8.07;3.40;;;;;;;;;;6211871;23;20020;-62
2023/07/13 07:10:22;;;;;;;10.50;3.10;;;;;;;;;;6209160;23;20018;-63
2023/07/13 07:12:48;;;;;;;8.25;2.83;;;;;;;;;;6208818;23;20735;-62
2023/07/13 07:15:14;;;;;;;8.90;3.13;;;;;;;;;;6211119;23;20048;-64
2023/07/13 07:17:40;;;;;;;12.20;3.30;;;;;;;;;;6207296;23;20468;-64
2023/07/13 07:20:07;;;;;;;10.52;3.55;;;;;;;;;;6211241;23;20655;-64
2023/07/13 07:22:33;;;;;;;7.68;3.20;;;;;;;;;;6206820;23;20019;-64
2023/07/13 07:24:59;;;;;;;10.90;3.25;;;;;;;;;;6210887;23;20109;-64
2023/07/13 07:27:25;;;;;;;10.23;4.15;;;;;;;;;;6210965;23;20013;-62
2023/07/13 07:29:51;;;;;;;10.05;3.30;;;;;;;;;;6211633;23;20328;-63
2023/07/13 07:32:17;;;;;;;12.75;3.47;;;;;;;;;;6209098;23;20052;-64
2023/07/13 07:34:43;;;;;;;6.82;3.20;;;;;;;;;;6210313;23;20078;-63
2023/07/13 07:37:11;;;;;;;11.20;3.45;;;;;;;;;;6208706;23;20024;-64
2023/07/13 07:39:37;;;;;;;11.10;3.78;;;;;;;;;;6208254;23;20017;-63
2023/07/13 07:42:04;;;;;;;9.00;3.53;;;;;;;;;;6211168;23;20020;-63
2023/07/13 07:44:31;;;;;;;10.18;3.40;;;;;;;;;;6206825;23;20016;-63
2023/07/13 07:46:57;;;;;;;12.57;3.60;;;;;;;;;;6210877;23;20095;-63
2023/07/13 07:49:23;;;;;;;8.85;3.97;;;;;;;;;;6178343;23;20013;-65
2023/07/13 07:51:49;;;;;;;10.27;3.35;;;;;;;;;;6204386;23;20024;-65
2023/07/13 07:54:16;;;;;;;9.32;4.00;;;;;;;;;;6211469;23;20459;-63
2023/07/13 07:56:42;;;;;;;14.90;4.35;;;;;;;;;;6207719;23;20020;-64
2023/07/13 07:59:08;;;;;;;15.07;3.58;;;;;;;;;;6212880;23;20109;-63
2023/07/13 08:01:34;;;;;;;11.85;3.72;;;;;;;;;;6205376;23;20070;-63
2023/07/13 08:04:00;;;;;;;11.55;3.60;;;;;;;;;;6212986;23;20693;-62
2023/07/13 08:06:26;;;;;;;13.38;3.70;;;;;;;;;;6213349;23;20297;-63
2023/07/13 08:08:52;;;;;;;12.45;3.80;;;;;;;;;;6210963;23;20428;-63
2023/07/13 08:11:18;;;;;;;10.70;4.95;;;;;;;;;;6212318;23;20067;-63
2023/07/13 08:13:44;;;;;;;12.00;3.88;;;;;;;;;;6212054;23;20016;-62
2023/07/13 08:16:11;;;;;;;12.35;4.25;;;;;;;;;;6209560;23;20604;-62
2023/07/13 08:18:37;;;;;;;15.13;4.53;;;;;;;;;;6213368;23;20184;-63
2023/07/13 08:21:07;;;;;;;11.35;4.10;;;;;;;;;;6213638;23;20378;-63
2023/07/13 08:23:33;;;;;;;13.68;4.43;;;;;;;;;;6213190;23;20009;-64
2023/07/13 08:26:01;;;;;;;15.30;5.00;;;;;;;;;;6212709;23;20020;-64
2023/07/13 08:28:27;;;;;;;12.32;5.43;;;;;;;;;;6210062;23;20016;-64
2023/07/13 08:30:53;;;;;;;13.00;4.80;;;;;;;;;;6207806;23;20015;-64
2023/07/13 08:33:20;;;;;;;20.08;6.05;;;;;;;;;;6210555;23;20066;-63
2023/07/13 08:35:47;;;;;;;14.90;5.65;;;;;;;;;;6212270;23;20439;-63
2023/07/13 08:38:13;;;;;;;14.63;6.20;;;;;;;;;;6212980;23;20063;-63
2023/07/13 08:40:40;;;;;;;13.18;5.68;;;;;;;;;;6211712;23;20136;-63
2023/07/13 08:43:09;;;;;;;11.90;4.03;;;;;;;;;;6212445;23;20048;-62
2023/07/13 08:45:49;;;;;;;7.70;3.72;;;;;;;;;;6208939;23;20066;-63
2023/07/13 08:48:21;;;;;;;9.82;3.78;;;;;;;;;;6210041;23;20095;-63
2023/07/13 08:51:05;;;;;;;5.32;3.50;;;;;;;;;;6212496;23;20013;-62
2023/07/13 08:53:35;;;;;;;12.32;4.13;;;;;;;;;;6213546;23;20486;-62
2023/07/13 08:56:01;;;;;;;9.85;4.00;;;;;;;;;;6209813;23;20344;-63
2023/07/13 08:58:29;;;;;;;11.02;4.63;;;;;;;;;;6214075;23;20017;-63
2023/07/13 09:01:14;;;;;;;8.32;4.65;;;;;;;;;;6213672;23;20528;-62
2023/07/13 09:03:58;;;;;;;12.50;5.05;;;;;;;;;;6203859;23;20016;-63
2023/07/13 09:06:28;;;;;;;12.95;4.95;;;;;;;;;;6213613;23;20439;-63
2023/07/13 09:08:59;;;;;;;13.77;6.18;;;;;;;;;;6213044;23;20298;-63
2023/07/13 09:11:33;;;;;;;11.88;5.72;;;;;;;;;;6211879;23;20401;-63
2023/07/13 09:14:07;;;;;;;11.27;4.93;;;;;;;;;;6213394;23;20301;-63
2023/07/13 09:16:34;;;;;;;13.85;4.82;;;;;;;;;;6212963;23;20027;-63
2023/07/13 09:19:02;;;;;;;11.07;5.18;;;;;;;;;;6212541;23;20017;-64
2023/07/13 09:21:36;;;;;;;14.85;4.90;;;;;;;;;;6212959;23;20039;-64
2023/07/13 09:24:21;;;;;;;9.43;4.32;;;;;;;;;;6212672;23;20016;-64
2023/07/13 09:26:48;;;;;;;13.02;3.53;;;;;;;;;;6213011;23;20019;-64
2023/07/13 09:29:17;;;;;;;8.82;3.70;;;;;;;;;;6186048;23;20093;-64
2023/07/13 09:31:45;;;;;;;7.70;2.53;;;;;;;;;;6210138;23;20441;-64
2023/07/13 09:34:12;;;;;;;4.47;2.42;;;;;;;;;;6212743;23;20023;-62
2023/07/13 09:36:38;;;;;;;4.13;2.20;;;;;;;;;;6210104;23;20028;-63
2023/07/13 09:39:23;;;;;;;5.57;2.40;;;;;;;;;;6212894;23;20095;-64
2023/07/13 09:41:55;;;;;;;3.92;2.20;;;;;;;;;;6212028;23;20020;-63
2023/07/13 09:44:38;;;;;;;5.47;2.75;;;;;;;;;;6212254;23;20012;-64
2023/07/13 09:47:04;;;;;;;3.47;2.70;;;;;;;;;;6212214;23;20028;-63
2023/07/13 09:49:34;;;;;;;3.13;2.42;;;;;;;;;;6212447;23;20012;-63
2023/07/13 09:52:04;;;;;;;4.15;2.35;;;;;;;;;;6212544;23;20020;-63
2023/07/13 09:54:34;;;;;;;4.90;2.47;;;;;;;;;;6211784;23;20047;-64
2023/07/13 09:57:01;;;;;;;4.03;2.78;;;;;;;;;;6209879;23;20012;-63
2023/07/13 09:59:46;;;;;;;3.88;1.92;;;;;;;;;;6211787;23;20028;-64
2023/07/13 10:02:26;;;;;;;6.00;2.17;;;;;;;;;;6212450;23;20058;-63
2023/07/13 10:05:03;;;;;;;4.35;2.22;;;;;;;;;;6212083;23;20092;-62
2023/07/13 10:07:29;;;;;;;2.55;1.73;;;;;;;;;;6212360;23;20100;-62
2023/07/13 10:09:56;;;;;;;3.95;2.33;;;;;;;;;;6212036;23;20013;-63
2023/07/13 10:12:25;;;;;;;3.08;2.15;;;;;;;;;;6185835;23;20040;-64
2023/07/13 10:14:54;;;;;;;2.55;2.35;;;;;;;;;;6212559;23;20012;-63
2023/07/13 10:17:25;;;;;;;5.43;2.53;;;;;;;;;;6209331;23;20020;-63
2023/07/13 10:19:52;;;;;;;5.05;2.80;;;;;;;;;;6211958;23;20068;-63
2023/07/13 10:22:24;;;;;;;7.55;2.92;;;;;;;;;;6212941;23;20020;-63
2023/07/13 10:24:51;;;;;;;4.15;3.25;;;;;;;;;;6211886;23;20020;-64
2023/07/13 10:27:17;;;;;;;7.13;3.28;;;;;;;;;;6212712;23;20017;-64
2023/07/13 10:29:46;;;;;;;6.35;2.92;;;;;;;;;;6212277;23;20024;-64
2023/07/13 10:32:12;;;;;;;7.60;3.03;;;;;;;;;;6212011;23;20320;-63
2023/07/13 10:34:39;;;;;;;7.85;3.10;;;;;;;;;;6212503;23;20012;-64
2023/07/13 10:37:06;;;;;;;6.68;3.20;;;;;;;;;;6211457;23;20462;-64
2023/07/13 10:39:34;;;;;;;6.97;3.30;;;;;;;;;;6211057;23;20082;-64
2023/07/13 10:42:01;;;;;;;6.20;3.50;;;;;;;;;;6212334;23;20099;-63
2023/07/13 10:44:29;;;;;;;8.93;3.50;;;;;;;;;;6212312;23;20020;-64
2023/07/13 10:46:58;;;;;;;6.03;3.60;;;;;;;;;;6211992;23;20455;-64
2023/07/13 10:49:25;;;;;;;8.00;3.35;;;;;;;;;;6211219;23;20020;-63
2023/07/13 10:51:51;;;;;;;5.80;3.30;;;;;;;;;;6212056;23;20054;-64
2023/07/13 10:54:22;;;;;;;5.95;3.10;;;;;;;;;;6211872;23;20023;-64
2023/07/13 10:56:49;;;;;;;6.13;3.13;;;;;;;;;;6212662;23;20023;-65
2023/07/13 10:59:18;;;;;;;7.40;3.03;;;;;;;;;;6212929;23;20015;-64
2023/07/13 11:01:55;;;;;;;8.07;3.30;;;;;;;;;;6182119;23;20019;-63
2023/07/13 11:04:23;;;;;;;8.15;3.28;;;;;;;;;;6209834;23;20480;-63
2023/07/13 11:06:52;;;;;;;4.68;2.67;;;;;;;;;;6212862;23;20016;-63
2023/07/13 11:09:37;;;;;;;6.50;3.22;;;;;;;;;;6211321;23;20368;-63
2023/07/13 11:12:08;;;;;;;8.23;2.88;;;;;;;;;;6211498;23;20016;-64
2023/07/13 11:14:38;;;;;;;8.30;3.40;;;;;;;;;;6212105;23;20017;-63
2023/07/13 11:17:22;;;;;;;9.20;3.53;;;;;;;;;;6210761;23;20016;-63
2023/07/13 11:19:52;;;;;;;8.23;3.22;;;;;;;;;;6212337;23;20051;-63
2023/07/13 11:22:22;;;;;;;8.10;3.15;;;;;;;;;;6212400;23;20023;-63
2023/07/13 11:25:02;;;;;;;7.43;2.67;;;;;;;;;;6211597;23;20013;-63
2023/07/13 11:27:39;;;;;;;6.88;2.30;;;;;;;;;;6211925;23;20108;-63
2023/07/13 11:30:20;;;;;;;6.03;2.38;;;;;;;;;;6212325;23;20012;-63
2023/07/13 11:32:50;;;;;;;5.25;2.33;;;;;;;;;;6211321;23;20012;-62
2023/07/13 11:35:24;;;;;;;6.25;2.38;;;;;;;;;;6211570;23;20076;-62
2023/07/13 11:37:52;;;;;;;8.25;2.90;;;;;;;;;;6211852;23;20335;-63
2023/07/13 11:40:18;;;;;;;3.88;2.13;;;;;;;;;;6211499;23;20027;-63
2023/07/13 11:42:44;;;;;;;5.68;2.70;;;;;;;;;;6212096;23;20107;-63
2023/07/13 11:45:24;;;;;;;6.25;2.53;;;;;;;;;;6211531;23;20403;-63
2023/07/13 11:47:50;;;;;;;5.70;2.78;;;;;;;;;;6211939;23;20492;-63
2023/07/13 11:50:21;;;;;;;5.50;3.00;;;;;;;;;;6212273;23;20019;-64
2023/07/13 11:52:48;;;;;;;6.28;2.80;;;;;;;;;;6211127;23;20485;-64
2023/07/13 11:55:15;;;;;;;4.80;2.78;;;;;;;;;;6211840;23;20013;-64
2023/07/13 11:57:46;;;;;;;6.50;2.47;;;;;;;;;;6211980;23;20027;-64
2023/07/13 12:00:14;;;;;;;6.35;2.90;;;;;;;;;;6211485;23;20020;-64
2023/07/13 12:02:45;;;;;;;7.63;2.85;;;;;;;;;;6211122;23;20013;-64
2023/07/13 12:05:13;;;;;;;7.60;3.03;;;;;;;;;;6211304;23;20017;-64
2023/07/13 12:07:39;;;;;;;5.18;2.38;;;;;;;;;;6210970;23;20613;-64
2023/07/13 12:10:14;;;;;;;5.50;2.33;;;;;;;;;;6210763;23;20070;-64
2023/07/13 12:12:45;;;;;;;5.95;2.58;;;;;;;;;;6206210;23;20008;-64
2023/07/13 12:15:12;;;;;;;6.20;2.60;;;;;;;;;;6211323;23;20070;-64
2023/07/13 12:17:38;;;;;;;5.05;2.50;;;;;;;;;;6211355;23;20016;-63
2023/07/13 12:20:17;;;;;;;5.40;2.05;;;;;;;;;;6211934;23;20107;-65
2023/07/13 12:22:47;;;;;;;3.75;1.70;;;;;;;;;;6210807;23;20016;-65
2023/07/13 12:25:13;;;;;;;5.43;2.08;;;;;;;;;;6208589;23;20067;-64
2023/07/13 12:27:39;;;;;;;3.92;1.38;;;;;;;;;;6211446;23;20016;-64
2023/07/13 12:30:16;;;;;;;4.85;1.20;;;;;;;;;;6211218;23;20423;-64
2023/07/13 12:32:42;;;;;;;3.47;1.40;;;;;;;;;;6210777;23;20013;-63
2023/07/13 12:35:16;;;;;;;4.30;1.23;;;;;;;;;;6211530;23;20016;-65
2023/07/13 12:37:48;;;;;;;5.28;1.52;;;;;;;;;;6183582;23;20059;-65
2023/07/13 12:40:19;;;;;;;3.20;1.20;;;;;;;;;;6211665;23;20020;-65
2023/07/13 12:42:48;;;;;;;2.58;1.02;;;;;;;;;;6211459;23;20028;-65
2023/07/13 12:45:19;;;;;;;4.70;1.20;;;;;;;;;;6212321;23;20491;-64
2023/07/13 12:47:48;;;;;;;6.50;1.10;;;;;;;;;;6210693;23;20021;-64
2023/07/13 12:50:16;;;;;;;4.65;1.65;;;;;;;;;;6212902;23;20012;-64
2023/07/13 12:52:43;;;;;;;2.97;1.00;;;;;;;;;;6212128;23;20012;-64
2023/07/13 12:55:16;;;;;;;6.05;1.30;;;;;;;;;;6213542;23;20066;-64
2023/07/13 12:57:48;;;;;;;4.53;1.20;;;;;;;;;;6212968;23;20028;-65
2023/07/13 13:00:24;;;;;;;5.45;1.33;;;;;;;;;;6212650;23;20070;-64
2023/07/13 13:02:51;;;;;;;3.85;1.17;;;;;;;;;;6213179;23;20106;-66
2023/07/13 13:05:17;;;;;;;5.30;1.13;;;;;;;;;;6213235;23;20016;-64
2023/07/13 13:07:46;;;;;;;3.80;1.23;;;;;;;;;;6212803;23;20028;-64
2023/07/13 13:10:13;;;;;;;4.85;1.40;;;;;;;;;;6213314;23;20016;-64
2023/07/13 13:12:42;;;;;;;3.47;1.10;;;;;;;;;;6212483;23;20013;-65
2023/07/13 13:15:09;;;;;;;3.70;1.30;;;;;;;;;;6213081;23;20388;-63
2023/07/13 13:17:35;;;;;;;7.28;1.30;;;;;;;;;;6212913;23;20335;-63
2023/07/13 13:20:01;;;;;;;3.35;1.20;;;;;;;;;;6213419;23;20012;-64
2023/07/13 13:22:27;;;;;;;3.22;1.10;;;;;;;;;;6185469;23;20028;-63
2023/07/13 13:24:54;;;;;;;3.33;1.35;;;;;;;;;;6212936;23;20097;-63
2023/07/13 13:27:23;;;;;;;5.25;1.40;;;;;;;;;;6212910;23;20021;-64
2023/07/13 13:29:53;;;;;;;3.05;1.05;;;;;;;;;;6212177;23;20016;-66
2023/07/13 13:32:19;;;;;;;5.88;1.73;;;;;;;;;;6212596;23;20012;-64
2023/07/13 13:34:45;;;;;;;3.53;1.15;;;;;;;;;;6213084;23;20017;-64
2023/07/13 13:37:22;;;;;;;5.93;1.10;;;;;;;;;;6212549;23;20068;-63
2023/07/13 13:39:48;;;;;;;3.78;1.20;;;;;;;;;;6213099;23;20656;-65
2023/07/13 13:42:15;;;;;;;2.55;1.27;;;;;;;;;;6212746;23;20436;-65
2023/07/13 13:44:41;;;;;;;4.60;1.40;;;;;;;;;;6212636;23;20017;-64
2023/07/13 13:47:34;;;;;;;4.18;1.30;;;;;;;;;;6212693;23;20104;-64
2023/07/13 13:50:01;;;;;;;4.10;1.35;;;;;;;;;;6205970;23;20084;-64
2023/07/13 13:52:27;;;;;;;2.60;1.23;;;;;;;;;;6212492;23;20382;-63
2023/07/13 13:54:56;;;;;;;5.25;1.05;;;;;;;;;;6213371;23;20016;-64
2023/07/13 13:57:24;;;;;;;2.00;1.00;;;;;;;;;;6210262;23;20029;-64
2023/07/13 13:59:51;;;;;;;5.63;1.55;;;;;;;;;;6211356;23;20021;-64
2023/07/13 14:02:25;;;;;;;2.75;0.90;;;;;;;;;;6212149;23;20432;-64
2023/07/13 14:04:54;;;;;;;3.17;1.17;;;;;;;;;;6211745;23;20016;-64
2023/07/13 14:07:21;;;;;;;4.80;1.30;;;;;;;;;;6211065;23;20020;-64
2023/07/13 14:09:47;;;;;;;2.38;1.20;;;;;;;;;;6212221;23;20031;-64
2023/07/13 14:12:13;;;;;;;2.78;0.75;;;;;;;;;;6212582;23;20013;-64
2023/07/13 14:14:40;;;;;;;3.67;1.17;;;;;;;;;;6211897;23;20451;-64
2023/07/13 14:17:16;;;;;;;3.05;1.13;;;;;;;;;;6211299;23;20016;-64
2023/07/13 14:19:42;;;;;;;3.63;1.02;;;;;;;;;;6212352;23;20087;-65
2023/07/13 14:22:08;;;;;;;2.78;1.15;;;;;;;;;;6211529;23;20013;-65
2023/07/13 14:24:34;;;;;;;2.78;1.10;;;;;;;;;;6212315;23;20019;-65
2023/07/13 14:27:00;;;;;;;2.63;1.00;;;;;;;;;;6211809;23;20563;-65
2023/07/13 14:29:26;;;;;;;1.98;0.93;;;;;;;;;;6211372;23;20064;-64
2023/07/13 14:31:52;;;;;;;3.50;1.10;;;;;;;;;;6212358;23;20443;-64
2023/07/13 14:34:18;;;;;;;5.70;1.52;;;;;;;;;;6212225;23;20103;-63
2023/07/13 14:36:46;;;;;;;3.58;1.27;;;;;;;;;;6211274;23;20057;-64
2023/07/13 14:39:12;;;;;;;3.58;1.23;;;;;;;;;;6212500;23;20051;-64
2023/07/13 14:41:38;;;;;;;4.32;1.08;;;;;;;;;;6212615;23;20012;-64